Time;durP1;ratioP1;P1;durP2;ratioP2;P2;SDS_P1;SDS_P2;PMS_P1;PMS_P2;Temp;Humidity;BMP_temperature;BMP_pressure;BME280_temperature;BME280_humidity;BME280_pressure;Samples;Min_cycle;Max_cycle;Signal;HPM_P1;HPM_P2
2022/08/21 00:03:05;;;;;;;1.73;1.42;;;24.30;58.60;;;;;;10514863;28;20387;-52
2022/08/21 00:08:07;;;;;;;2.83;1.83;;;24.20;58.50;;;;;;10513635;28;20066;-49
2022/08/21 00:13:09;;;;;;;2.47;1.58;;;24.20;58.50;;;;;;10533000;28;20114;-47
2022/08/21 00:18:10;;;;;;;2.47;1.67;;;24.20;58.40;;;;;;10513997;28;20032;-51
2022/08/21 00:23:12;;;;;;;3.00;1.52;;;24.20;58.40;;;;;;10532337;28;20024;-48
2022/08/21 00:28:13;;;;;;;3.10;1.73;;;24.20;58.90;;;;;;10517040;28;20025;-49
2022/08/21 00:33:14;;;;;;;2.13;1.65;;;24.20;58.30;;;;;;10500014;28;20418;-48
2022/08/21 00:38:15;;;;;;;2.47;1.55;;;24.20;58.30;;;;;;10531581;28;20043;-49
2022/08/21 00:43:21;;;;;;;2.15;1.60;;;24.20;58.30;;;;;;10512838;28;20032;-48
2022/08/21 00:48:23;;;;;;;2.72;1.48;;;24.20;58.20;;;;;;10530216;28;20024;-49
2022/08/21 00:53:26;;;;;;;2.97;1.80;;;24.20;58.10;;;;;;10531040;28;20024;-49
2022/08/21 00:58:30;;;;;;;2.05;1.45;;;24.20;58.10;;;;;;10529460;28;20031;-48
2022/08/21 01:03:32;;;;;;;2.55;1.60;;;24.20;58.00;;;;;;10529380;28;20039;-49
2022/08/21 01:08:34;;;;;;;2.35;1.55;;;24.20;58.00;;;;;;10528950;28;20032;-47
2022/08/21 01:13:38;;;;;;;2.83;2.22;;;24.10;57.90;;;;;;10529032;28;20020;-48
2022/08/21 01:18:39;;;;;;;3.15;1.90;;;24.10;57.90;;;;;;10529475;28;20298;-50
2022/08/21 01:23:44;;;;;;;2.55;2.10;;;24.10;57.80;;;;;;10528752;28;20031;-50
2022/08/21 01:29:15;;;;;;;2.17;1.65;;;24.10;57.70;;;;;;10510915;28;20059;-47
2022/08/21 01:34:15;;;;;;;2.03;1.42;;;24.10;57.70;;;;;;10505713;28;20517;-48
2022/08/21 01:39:17;;;;;;;2.30;1.52;;;24.10;57.70;;;;;;10527992;28;20052;-51
2022/08/21 01:44:22;;;;;;;2.83;1.80;;;24.10;57.70;;;;;;10511863;28;20048;-52
2022/08/21 01:49:22;;;;;;;2.97;1.98;;;24.10;57.60;;;;;;10529914;28;20132;-53
2022/08/21 01:54:23;;;;;;;1.92;1.67;;;24.10;57.60;;;;;;10529422;28;20032;-50
2022/08/21 01:59:24;;;;;;;2.17;1.60;;;24.00;57.50;;;;;;10529312;28;20398;-48
2022/08/21 02:04:25;;;;;;;2.97;1.90;;;24.00;57.50;;;;;;10529107;28;20032;-48
2022/08/21 02:09:26;;;;;;;3.65;1.73;;;24.00;57.50;;;;;;10529366;28;20530;-50
2022/08/21 02:14:27;;;;;;;2.28;1.70;;;24.00;57.50;;;;;;10529025;28;20498;-47
2022/08/21 02:19:27;;;;;;;2.72;1.60;;;24.00;57.40;;;;;;10528704;28;20099;-48
2022/08/21 02:24:28;;;;;;;2.08;1.80;;;24.00;57.40;;;;;;10527638;28;20047;-48
2022/08/21 02:29:30;;;;;;;2.97;1.77;;;24.00;57.40;;;;;;10504916;28;20025;-49
2022/08/21 02:34:30;;;;;;;2.95;1.73;;;24.00;57.30;;;;;;10499344;28;20487;-51
2022/08/21 02:39:31;;;;;;;2.50;1.60;;;24.00;57.30;;;;;;10536316;28;20039;-52
2022/08/21 02:44:32;;;;;;;2.63;1.90;;;24.00;57.20;;;;;;10536247;28;20100;-51
2022/08/21 02:49:33;;;;;;;2.15;1.60;;;24.00;57.20;;;;;;10536637;28;20031;-50
2022/08/21 02:54:33;;;;;;;2.55;1.90;;;24.00;57.20;;;;;;10518463;28;20076;-49
2022/08/21 02:59:34;;;;;;;2.45;2.05;;;23.90;57.10;;;;;;10535268;28;20391;-47
2022/08/21 03:04:35;;;;;;;3.40;2.00;;;23.90;57.00;;;;;;10535522;28;20024;-48
2022/08/21 03:09:36;;;;;;;2.13;1.50;;;23.90;57.00;;;;;;10533832;28;20538;-47
2022/08/21 03:14:38;;;;;;;2.13;1.60;;;23.90;57.00;;;;;;10535407;28;20051;-49
2022/08/21 03:19:39;;;;;;;3.35;1.75;;;23.90;57.00;;;;;;10533415;28;20028;-51
2022/08/21 03:24:39;;;;;;;2.38;1.80;;;23.90;56.90;;;;;;10533224;28;20024;-50
2022/08/21 03:29:40;;;;;;;3.00;2.00;;;23.90;56.80;;;;;;10505960;28;20028;-48
2022/08/21 03:34:41;;;;;;;2.72;1.75;;;23.90;56.90;;;;;;10516048;28;20381;-50
2022/08/21 03:39:42;;;;;;;3.00;1.65;;;23.90;56.90;;;;;;10533129;28;20048;-48
2022/08/21 03:44:43;;;;;;;2.67;1.55;;;23.90;56.90;;;;;;10534084;28;20024;-50
2022/08/21 03:49:44;;;;;;;2.92;1.63;;;23.90;56.90;;;;;;10533173;28;20483;-47
2022/08/21 03:54:46;;;;;;;2.28;1.70;;;23.80;56.70;;;;;;10533451;28;20452;-51
2022/08/21 03:59:46;;;;;;;2.45;1.80;;;23.80;56.70;;;;;;10532850;28;20043;-48
2022/08/21 04:04:47;;;;;;;2.13;1.60;;;23.80;56.70;;;;;;10533178;28;20016;-49
2022/08/21 04:09:48;;;;;;;2.65;1.90;;;23.80;56.80;;;;;;10533393;28;20094;-51
2022/08/21 04:14:51;;;;;;;2.17;1.98;;;23.80;56.80;;;;;;10514298;28;20103;-49
2022/08/21 04:19:51;;;;;;;3.22;2.13;;;23.80;56.80;;;;;;10532539;28;20028;-50
2022/08/21 04:24:52;;;;;;;2.95;2.13;;;23.80;56.80;;;;;;10529960;28;20099;-49
2022/08/21 04:29:53;;;;;;;2.53;1.80;;;23.80;56.70;;;;;;10500360;28;20032;-48
2022/08/21 04:35:03;;;;;;;2.63;1.70;;;23.80;56.70;;;;;;10516641;28;20103;-48
2022/08/21 04:40:06;;;;;;;2.60;1.88;;;23.80;56.60;;;;;;10532202;28;20048;-48
2022/08/21 04:45:07;;;;;;;2.15;1.58;;;23.80;56.60;;;;;;10515772;28;20093;-48
2022/08/21 04:50:08;;;;;;;2.42;1.60;;;23.80;56.50;;;;;;10533143;28;20077;-48
2022/08/21 04:55:09;;;;;;;2.33;1.70;;;23.70;56.40;;;;;;10531969;28;20028;-48
2022/08/21 05:00:12;;;;;;;1.92;1.45;;;23.70;56.40;;;;;;10532747;28;20055;-48
2022/08/21 05:05:14;;;;;;;2.97;2.00;;;23.70;56.50;;;;;;10532355;28;20035;-50
2022/08/21 05:10:15;;;;;;;2.58;1.77;;;23.70;56.50;;;;;;10531129;28;20039;-48
2022/08/21 05:15:16;;;;;;;2.80;2.00;;;23.70;56.40;;;;;;10531242;28;20028;-47
2022/08/21 05:20:19;;;;;;;2.85;1.70;;;23.70;56.50;;;;;;10532036;28;20024;-48
2022/08/21 05:25:20;;;;;;;2.65;1.73;;;23.70;56.50;;;;;;10532131;28;20511;-49
2022/08/21 05:30:21;;;;;;;2.45;1.98;;;23.70;56.50;;;;;;10499817;28;20037;-47
2022/08/21 05:35:22;;;;;;;2.53;1.50;;;23.70;57.20;;;;;;10518837;28;20032;-49
2022/08/21 05:40:23;;;;;;;2.42;1.88;;;23.70;56.90;;;;;;10513412;28;20047;-49
2022/08/21 05:45:28;;;;;;;3.35;1.88;;;23.60;56.60;;;;;;10531569;28;20111;-49
2022/08/21 05:50:30;;;;;;;2.85;2.25;;;23.70;56.60;;;;;;10513633;28;20056;-46
2022/08/21 05:55:31;;;;;;;3.28;2.35;;;23.60;56.50;;;;;;10513384;28;20651;-49
2022/08/21 06:00:33;;;;;;;3.63;2.20;;;23.60;56.70;;;;;;10531173;28;20024;-48
2022/08/21 06:05:34;;;;;;;3.03;2.30;;;23.60;56.70;;;;;;10534634;28;20097;-50
2022/08/21 06:10:35;;;;;;;2.75;1.63;;;23.60;56.80;;;;;;10539395;28;20507;-49
2022/08/21 06:15:35;;;;;;;3.70;2.75;;;23.60;56.80;;;;;;10539330;28;20032;-50
2022/08/21 06:20:37;;;;;;;2.72;2.13;;;23.60;56.90;;;;;;10539309;28;20387;-47
2022/08/21 06:25:37;;;;;;;3.17;2.15;;;23.60;57.00;;;;;;10538816;28;20020;-53
2022/08/21 06:30:39;;;;;;;2.58;2.05;;;23.60;57.10;;;;;;10502273;28;20489;-48
2022/08/21 06:35:40;;;;;;;2.90;1.88;;;23.60;57.20;;;;;;10527840;28;20041;-48
2022/08/21 06:40:41;;;;;;;2.25;2.05;;;23.60;57.20;;;;;;10538242;28;20048;-49
2022/08/21 06:45:43;;;;;;;3.65;2.47;;;23.60;57.20;;;;;;10538218;28;20340;-51
2022/08/21 06:50:44;;;;;;;4.18;2.40;;;23.60;57.40;;;;;;10538396;28;20069;-48
2022/08/21 06:55:45;;;;;;;3.17;2.20;;;23.60;57.40;;;;;;10520170;28;20506;-50
2022/08/21 07:00:50;;;;;;;2.30;1.75;;;23.60;57.50;;;;;;10537272;28;20036;-49
2022/08/21 07:05:51;;;;;;;2.55;2.10;;;23.60;57.70;;;;;;10537287;28;20110;-49
2022/08/21 07:10:56;;;;;;;2.58;1.80;;;23.60;57.70;;;;;;10519054;28;20603;-48
2022/08/21 07:15:57;;;;;;;3.25;1.65;;;23.60;57.80;;;;;;10535251;28;20028;-51
2022/08/21 07:21:00;;;;;;;1.85;1.63;;;23.60;57.90;;;;;;10536610;28;20020;-52
2022/08/21 07:26:01;;;;;;;2.78;2.00;;;23.60;58.00;;;;;;10536642;28;20035;-50
2022/08/21 07:31:03;;;;;;;1.85;1.30;;;23.60;58.00;;;;;;10498244;28;20028;-49
2022/08/21 07:36:05;;;;;;;2.10;1.80;;;23.60;58.00;;;;;;10527848;28;20020;-48
2022/08/21 07:41:19;;;;;;;3.10;1.83;;;23.60;58.10;;;;;;10534926;28;20055;-50
2022/08/21 07:46:20;;;;;;;2.13;1.65;;;23.60;58.20;;;;;;10536000;28;20024;-51
2022/08/21 07:51:26;;;;;;;3.17;2.45;;;23.60;58.30;;;;;;10536046;28;20463;-50
2022/08/21 07:56:29;;;;;;;2.40;1.83;;;23.60;58.30;;;;;;10535524;28;20067;-52
2022/08/21 08:01:30;;;;;;;2.72;1.63;;;23.60;58.40;;;;;;10534770;28;20031;-48
2022/08/21 08:06:31;;;;;;;4.20;2.15;;;23.60;58.40;;;;;;10533539;28;20095;-51
2022/08/21 08:11:32;;;;;;;2.80;2.10;;;23.60;58.70;;;;;;10534887;28;20100;-50
2022/08/21 08:16:33;;;;;;;3.03;1.60;;;23.70;58.80;;;;;;10533369;28;20027;-48
2022/08/21 08:21:35;;;;;;;4.93;1.98;;;23.60;58.80;;;;;;10533454;28;20388;-49
2022/08/21 08:26:36;;;;;;;3.53;1.85;;;23.60;58.80;;;;;;10531168;28;20459;-49
2022/08/21 08:31:36;;;;;;;4.25;2.67;;;23.70;58.90;;;;;;10491679;28;20127;-50
2022/08/21 08:36:37;;;;;;;3.28;1.85;;;23.70;58.90;;;;;;10531561;28;20032;-52
2022/08/21 08:41:39;;;;;;;4.82;2.38;;;23.70;58.90;;;;;;10515148;28;20060;-51
2022/08/21 08:46:51;;;;;;;2.80;2.00;;;23.70;59.00;;;;;;10532544;28;20051;-52
2022/08/21 08:52:02;;;;;;;3.78;1.90;;;23.70;59.10;;;;;;10532379;28;20122;-50
2022/08/21 08:57:10;;;;;;;4.63;1.77;;;23.80;59.20;;;;;;10533293;28;20032;-50
2022/08/21 09:02:13;;;;;;;2.17;1.65;;;23.80;59.20;;;;;;10531871;28;20371;-52
2022/08/21 09:07:30;;;;;;;3.58;1.45;;;23.70;59.10;;;;;;10531628;28;20035;-52
2022/08/21 09:12:53;;;;;;;3.63;2.53;;;23.80;59.20;;;;;;10531622;28;20040;-51
2022/08/21 09:18:43;;;;;;;4.88;2.25;;;23.80;59.20;;;;;;10532244;28;20060;-53
2022/08/21 09:24:20;;;;;;;2.75;1.63;;;23.80;59.20;;;;;;10513255;28;20495;-49
2022/08/21 09:29:26;;;;;;;2.88;1.83;;;23.80;59.20;;;;;;10503026;28;20516;-51
2022/08/21 09:34:31;;;;;;;3.15;1.95;;;23.80;59.20;;;;;;10510444;28;20490;-49
2022/08/21 09:39:39;;;;;;;3.85;1.73;;;23.80;59.10;;;;;;10531301;28;20040;-52
2022/08/21 09:44:43;;;;;;;3.05;2.10;;;23.80;59.20;;;;;;10531440;28;20063;-53
2022/08/21 09:49:44;;;;;;;2.80;1.67;;;23.80;59.20;;;;;;10531739;28;20056;-50
2022/08/21 09:54:46;;;;;;;4.82;2.35;;;23.90;59.20;;;;;;10531215;28;20135;-49
2022/08/21 09:59:47;;;;;;;3.88;1.88;;;23.90;59.20;;;;;;10531189;28;20020;-50
2022/08/21 10:05:02;;;;;;;3.33;2.00;;;23.90;59.30;;;;;;10531429;28;20058;-49
2022/08/21 10:10:27;;;;;;;4.15;1.80;;;23.90;59.00;;;;;;10531095;28;20035;-49
2022/08/21 10:16:01;;;;;;;2.95;1.48;;;23.90;59.20;;;;;;10519921;28;20047;-50
2022/08/21 10:21:24;;;;;;;3.15;1.90;;;23.90;59.20;;;;;;10529828;28;20035;-51
2022/08/21 10:26:37;;;;;;;2.50;1.42;;;24.00;58.90;;;;;;10529596;28;20024;-50
2022/08/21 10:31:57;;;;;;;4.18;2.13;;;23.90;59.00;;;;;;10487860;28;20032;-51
2022/08/21 10:37:35;;;;;;;2.55;1.20;;;23.90;59.00;;;;;;10470482;28;20040;-53
2022/08/21 10:42:57;;;;;;;2.75;1.45;;;24.00;59.20;;;;;;10488646;28;20200;-51
2022/08/21 10:48:04;;;;;;;2.38;1.50;;;24.00;59.30;;;;;;10488595;28;20051;-51
2022/08/21 10:53:42;;;;;;;2.55;1.65;;;24.00;59.30;;;;;;10475844;28;20476;-51
2022/08/21 10:59:11;;;;;;;2.30;1.42;;;24.00;59.00;;;;;;10494386;28;20039;-50
2022/08/21 11:04:36;;;;;;;2.88;2.28;;;24.00;59.30;;;;;;10496026;28;20033;-52
2022/08/21 11:09:38;;;;;;;3.22;1.88;;;24.10;59.30;;;;;;10494160;28;20029;-49
2022/08/21 11:14:48;;;;;;;2.50;2.13;;;24.10;59.30;;;;;;10493508;28;20167;-51
2022/08/21 11:20:02;;;;;;;3.47;1.52;;;24.10;59.10;;;;;;10495265;28;20036;-52
2022/08/21 11:25:20;;;;;;;2.55;1.60;;;24.20;59.30;;;;;;10476923;28;20530;-50
2022/08/21 11:30:23;;;;;;;3.15;1.50;;;24.10;59.30;;;;;;10494681;28;20047;-53
2022/08/21 11:35:53;;;;;;;2.17;1.60;;;24.10;59.30;;;;;;10506206;28;20024;-49
2022/08/21 11:41:21;;;;;;;2.67;1.52;;;24.20;59.40;;;;;;10536205;28;20042;-51
2022/08/21 11:46:29;;;;;;;2.50;1.73;;;24.20;59.40;;;;;;10536188;28;20072;-51
2022/08/21 11:51:41;;;;;;;4.57;1.60;;;24.20;59.30;;;;;;10517227;28;20562;-52
2022/08/21 11:56:51;;;;;;;3.92;1.42;;;24.20;59.20;;;;;;10534432;28;20036;-49
2022/08/21 12:01:54;;;;;;;3.42;1.92;;;24.20;59.40;;;;;;10533867;28;20036;-49
2022/08/21 12:06:56;;;;;;;2.05;1.10;;;24.20;59.40;;;;;;10533454;28;20020;-51
2022/08/21 12:12:22;;;;;;;3.88;1.45;;;24.20;59.30;;;;;;10533672;28;20032;-50
2022/08/21 12:17:36;;;;;;;3.20;1.60;;;24.30;59.50;;;;;;10517998;28;20032;-52
2022/08/21 12:22:39;;;;;;;3.83;1.27;;;24.20;59.40;;;;;;10534438;28;20386;-53
2022/08/21 12:28:07;;;;;;;2.95;1.73;;;24.30;59.40;;;;;;10522651;28;20040;-52
2022/08/21 12:33:40;;;;;;;3.25;1.42;;;24.30;59.30;;;;;;10500898;28;20039;-52
2022/08/21 12:38:51;;;;;;;4.22;1.50;;;24.20;59.40;;;;;;10532530;28;20039;-48
2022/08/21 12:44:00;;;;;;;2.38;1.67;;;24.30;59.40;;;;;;10532416;28;20436;-50
2022/08/21 12:49:25;;;;;;;1.95;1.23;;;24.30;59.30;;;;;;10533442;28;20024;-52
2022/08/21 12:54:32;;;;;;;2.80;1.50;;;24.30;59.20;;;;;;10515329;28;20535;-52
2022/08/21 12:59:39;;;;;;;2.80;1.40;;;24.30;59.30;;;;;;10533004;28;20116;-52
2022/08/21 13:04:41;;;;;;;2.17;1.40;;;24.30;59.10;;;;;;10532661;28;20028;-52
2022/08/21 13:09:53;;;;;;;3.08;1.48;;;24.30;59.20;;;;;;10531459;28;20055;-52
2022/08/21 13:14:58;;;;;;;6.20;1.45;;;24.30;59.10;;;;;;10530608;28;20027;-54
2022/08/21 13:20:08;;;;;;;1.90;1.60;;;24.30;59.10;;;;;;10532278;28;20031;-51
2022/08/21 13:25:16;;;;;;;3.03;1.85;;;24.40;59.10;;;;;;10531972;28;20360;-52
2022/08/21 13:30:22;;;;;;;2.00;1.30;;;24.40;59.10;;;;;;10500035;28;20123;-52
2022/08/21 13:35:55;;;;;;;3.97;1.83;;;24.40;59.00;;;;;;10518455;28;20107;-52
2022/08/21 13:41:21;;;;;;;1.52;1.27;;;24.40;58.90;;;;;;10492569;28;20526;-51
2022/08/21 13:46:23;;;;;;;3.90;1.80;;;24.40;59.00;;;;;;10530805;28;20020;-51
2022/08/21 13:51:24;;;;;;;2.45;1.70;;;24.30;58.80;;;;;;10513487;28;20537;-49
2022/08/21 13:56:29;;;;;;;2.20;1.40;;;24.40;59.40;;;;;;10529882;28;20035;-53
2022/08/21 14:01:49;;;;;;;1.88;1.08;;;24.30;58.60;;;;;;10531024;28;20403;-51
2022/08/21 14:06:51;;;;;;;2.83;1.30;;;24.30;58.90;;;;;;10529963;28;20111;-51
2022/08/21 14:11:55;;;;;;;1.98;1.17;;;24.30;58.70;;;;;;10530973;28;20107;-50
2022/08/21 14:17:04;;;;;;;3.47;1.83;;;24.30;59.00;;;;;;10529946;28;20475;-51
2022/08/21 14:22:39;;;;;;;5.43;1.90;;;24.30;58.60;;;;;;10530791;28;20028;-52
2022/08/21 14:27:50;;;;;;;3.17;1.30;;;24.30;59.00;;;;;;10524241;28;20047;-52
2022/08/21 14:32:51;;;;;;;1.88;1.50;;;24.30;58.90;;;;;;10504655;28;20016;-51
2022/08/21 14:37:53;;;;;;;2.05;1.52;;;24.30;58.30;;;;;;10538659;28;20036;-51
2022/08/21 14:42:54;;;;;;;2.97;1.63;;;24.30;58.80;;;;;;10538467;28;20097;-49
2022/08/21 14:47:56;;;;;;;3.05;1.58;;;24.30;58.70;;;;;;10538309;28;20082;-52
2022/08/21 14:52:57;;;;;;;1.67;1.40;;;24.30;58.60;;;;;;10536797;28;20058;-53
2022/08/21 14:57:58;;;;;;;4.32;1.58;;;24.20;58.70;;;;;;10537977;28;20028;-53
2022/08/21 15:02:58;;;;;;;3.10;1.50;;;24.20;58.80;;;;;;10536662;28;20378;-52
2022/08/21 15:07:59;;;;;;;2.33;1.25;;;24.20;58.80;;;;;;10536326;28;20035;-53
2022/08/21 15:13:01;;;;;;;2.55;1.63;;;24.20;58.80;;;;;;10537694;28;20107;-50
2022/08/21 15:18:02;;;;;;;2.22;1.83;;;24.20;59.00;;;;;;10537222;28;20067;-52
2022/08/21 15:23:05;;;;;;;4.32;1.80;;;24.20;58.90;;;;;;10536823;28;20024;-52
2022/08/21 15:28:06;;;;;;;2.13;1.35;;;24.20;58.80;;;;;;10522905;28;20033;-51
2022/08/21 15:33:07;;;;;;;2.17;1.20;;;24.20;58.90;;;;;;10504376;28;20032;-51
2022/08/21 15:38:09;;;;;;;2.65;1.13;;;24.20;58.80;;;;;;10535838;28;20048;-49
2022/08/21 15:43:30;;;;;;;2.75;1.45;;;24.20;58.90;;;;;;10535744;28;20131;-51
2022/08/21 15:48:31;;;;;;;1.73;1.25;;;24.20;58.90;;;;;;10534826;28;20089;-51
2022/08/21 15:53:35;;;;;;;1.85;1.30;;;24.20;58.80;;;;;;10517750;28;20088;-52
2022/08/21 15:58:35;;;;;;;2.25;1.30;;;24.20;58.90;;;;;;10535037;28;20147;-51
2022/08/21 16:03:36;;;;;;;2.75;1.15;;;24.20;58.90;;;;;;10535861;28;20024;-52
2022/08/21 16:08:37;;;;;;;2.65;1.45;;;24.20;58.80;;;;;;10533668;28;20036;-52
2022/08/21 16:13:42;;;;;;;2.42;1.55;;;24.20;59.00;;;;;;10534450;28;20028;-51
2022/08/21 16:18:43;;;;;;;1.90;1.20;;;24.20;59.50;;;;;;10533676;28;20119;-52
2022/08/21 16:23:44;;;;;;;2.33;1.00;;;24.20;58.80;;;;;;10516331;28;20177;-52
2022/08/21 16:28:56;;;;;;;2.15;1.63;;;24.20;59.00;;;;;;10514719;28;20089;-48
2022/08/21 16:33:58;;;;;;;2.40;1.30;;;24.20;58.80;;;;;;10507732;28;20107;-53
2022/08/21 16:39:00;;;;;;;1.77;1.23;;;24.10;58.60;;;;;;10534321;28;20044;-53
2022/08/21 16:44:01;;;;;;;2.05;1.30;;;24.20;58.80;;;;;;10532702;28;20032;-52
2022/08/21 16:49:03;;;;;;;5.03;1.58;;;24.10;58.70;;;;;;10532375;28;20088;-51
2022/08/21 16:54:04;;;;;;;2.10;1.45;;;24.10;58.70;;;;;;10533443;28;20115;-50
2022/08/21 16:59:04;;;;;;;2.60;1.58;;;24.20;58.80;;;;;;10531730;28;20459;-52
2022/08/21 17:04:05;;;;;;;1.50;1.40;;;24.10;58.80;;;;;;10532844;28;20040;-52
2022/08/21 17:09:06;;;;;;;2.40;1.42;;;24.10;58.80;;;;;;10533213;28;20040;-52
2022/08/21 17:14:16;;;;;;;2.38;1.10;;;24.10;58.80;;;;;;10514402;28;20059;-48
2022/08/21 17:19:18;;;;;;;1.95;1.05;;;24.10;58.80;;;;;;10532356;28;20024;-51
2022/08/21 17:24:19;;;;;;;2.20;1.30;;;24.10;58.70;;;;;;10532514;28;20572;-51
2022/08/21 17:29:25;;;;;;;2.33;1.10;;;24.10;58.70;;;;;;10506894;28;20028;-52
2022/08/21 17:34:25;;;;;;;2.95;1.55;;;24.10;59.30;;;;;;10509713;28;20135;-48
2022/08/21 17:39:26;;;;;;;2.65;1.65;;;24.10;58.80;;;;;;10530505;28;20044;-49
2022/08/21 17:44:27;;;;;;;1.30;1.20;;;24.10;58.80;;;;;;10531838;28;20024;-51
2022/08/21 17:49:28;;;;;;;3.00;1.40;;;24.10;58.80;;;;;;10513431;28;20020;-51
2022/08/21 17:54:28;;;;;;;2.70;1.30;;;24.10;58.80;;;;;;10532194;28;20053;-52
2022/08/21 17:59:29;;;;;;;3.50;1.77;;;24.10;58.80;;;;;;10532749;28;20036;-51
2022/08/21 18:04:30;;;;;;;1.90;1.25;;;24.10;58.70;;;;;;10521607;28;20417;-51
2022/08/21 18:09:31;;;;;;;1.67;1.27;;;24.10;58.70;;;;;;10539774;28;20129;-52
2022/08/21 18:14:35;;;;;;;2.47;1.65;;;24.10;58.70;;;;;;10539397;28;20028;-52
2022/08/21 18:19:36;;;;;;;2.17;1.35;;;24.10;58.70;;;;;;10521326;28;20046;-51
2022/08/21 18:24:37;;;;;;;1.70;1.40;;;24.10;58.60;;;;;;10539318;28;20372;-52
2022/08/21 18:29:38;;;;;;;1.88;1.35;;;24.10;58.60;;;;;;10512311;28;20044;-51
2022/08/21 18:34:40;;;;;;;2.50;1.75;;;24.10;58.60;;;;;;10519979;28;20028;-50
2022/08/21 18:39:41;;;;;;;1.58;1.25;;;24.10;58.50;;;;;;10537301;28;20089;-52
2022/08/21 18:44:46;;;;;;;2.88;1.30;;;24.10;58.50;;;;;;10538364;28;20028;-52
2022/08/21 18:49:47;;;;;;;2.33;1.23;;;24.10;58.50;;;;;;10537084;28;20077;-52
2022/08/21 18:54:48;;;;;;;2.53;1.55;;;24.10;58.50;;;;;;10538239;28;20081;-51
2022/08/21 18:59:48;;;;;;;2.15;1.17;;;24.10;58.50;;;;;;10537843;28;20043;-52
2022/08/21 19:04:49;;;;;;;2.20;1.58;;;24.10;58.40;;;;;;10537486;28;20103;-52
2022/08/21 19:09:51;;;;;;;3.58;1.52;;;24.10;58.40;;;;;;10537670;28;20123;-52
2022/08/21 19:14:52;;;;;;;3.10;1.67;;;24.10;58.40;;;;;;10518191;28;20035;-51
2022/08/21 19:20:00;;;;;;;1.75;1.40;;;24.10;58.40;;;;;;10538127;28;20475;-53
2022/08/21 19:25:00;;;;;;;3.17;1.80;;;24.10;58.50;;;;;;10535580;28;20028;-50
2022/08/21 19:30:05;;;;;;;2.83;1.33;;;24.10;58.50;;;;;;10505217;28;20028;-50
2022/08/21 19:35:06;;;;;;;2.30;1.25;;;24.10;58.50;;;;;;10518120;28;20946;-51
2022/08/21 19:40:08;;;;;;;2.33;1.08;;;24.10;58.50;;;;;;10533163;28;20058;-51
2022/08/21 19:45:09;;;;;;;1.77;1.20;;;24.10;58.50;;;;;;10516593;28;20027;-49
2022/08/21 19:50:10;;;;;;;2.88;1.45;;;24.10;58.50;;;;;;10534209;28;20036;-51
2022/08/21 19:55:12;;;;;;;1.85;1.20;;;24.10;58.50;;;;;;10533055;28;20058;-49
2022/08/21 20:00:13;;;;;;;2.13;1.35;;;24.10;58.50;;;;;;10533547;28;20437;-50
2022/08/21 20:05:14;;;;;;;1.38;0.88;;;24.10;58.50;;;;;;10533814;28;20028;-49
2022/08/21 20:10:14;;;;;;;1.92;1.38;;;24.20;58.50;;;;;;10531943;28;20032;-51
2022/08/21 20:15:20;;;;;;;1.25;0.82;;;24.10;58.50;;;;;;10532710;28;20038;-51
2022/08/21 20:20:21;;;;;;;1.90;1.30;;;24.10;58.50;;;;;;10531340;28;20020;-52
2022/08/21 20:25:22;;;;;;;2.25;1.27;;;24.20;58.50;;;;;;10532175;28;20107;-50
2022/08/21 20:30:22;;;;;;;1.70;1.60;;;24.20;58.50;;;;;;10498464;28;20032;-50
2022/08/21 20:35:23;;;;;;;1.73;1.48;;;24.20;58.50;;;;;;10517718;28;20032;-51
2022/08/21 20:40:24;;;;;;;2.22;2.03;;;24.20;58.60;;;;;;10531814;28;20042;-53
2022/08/21 20:45:30;;;;;;;2.40;1.55;;;24.20;58.60;;;;;;10530414;28;20421;-50
2022/08/21 20:50:37;;;;;;;1.40;1.08;;;24.20;58.50;;;;;;10531405;28;20075;-48
2022/08/21 20:55:44;;;;;;;2.53;1.60;;;24.20;58.60;;;;;;10530622;28;20059;-49
2022/08/21 21:00:46;;;;;;;2.05;1.10;;;24.10;58.50;;;;;;10530031;28;20066;-52
2022/08/21 21:06:18;;;;;;;3.17;1.23;;;24.10;58.50;;;;;;10530087;28;20021;-49
2022/08/21 21:11:33;;;;;;;2.97;1.30;;;24.10;58.50;;;;;;10512211;28;20048;-49
2022/08/21 21:16:47;;;;;;;2.10;1.55;;;24.20;58.50;;;;;;10529630;28;20112;-50
2022/08/21 21:22:16;;;;;;;2.88;1.30;;;24.10;58.50;;;;;;10529787;28;20082;-48
2022/08/21 21:27:42;;;;;;;2.60;1.50;;;24.10;58.50;;;;;;10522120;28;20035;-51
2022/08/21 21:32:43;;;;;;;2.53;1.55;;;24.10;58.60;;;;;;10495056;28;20032;-51
2022/08/21 21:38:10;;;;;;;2.10;1.10;;;24.10;58.60;;;;;;10530129;28;20031;-49
2022/08/21 21:44:03;;;;;;;2.20;1.52;;;24.10;58.60;;;;;;10528580;28;20089;-48
2022/08/21 21:49:28;;;;;;;2.00;1.20;;;24.10;58.60;;;;;;10508720;28;20055;-52
2022/08/21 21:54:57;;;;;;;1.65;1.30;;;24.00;58.60;;;;;;10529744;28;20032;-50
2022/08/21 22:00:20;;;;;;;3.03;1.60;;;24.10;58.60;;;;;;10529305;28;20025;-51
2022/08/21 22:05:38;;;;;;;1.83;1.50;;;24.10;58.70;;;;;;10528912;28;20082;-48
2022/08/21 22:11:06;;;;;;;2.30;1.45;;;24.00;58.60;;;;;;10494667;28;20411;-50
2022/08/21 22:16:07;;;;;;;3.10;1.60;;;24.00;58.60;;;;;;10529192;28;20059;-50
2022/08/21 22:21:27;;;;;;;2.20;1.45;;;24.00;58.70;;;;;;10511127;28;20028;-49
2022/08/21 22:26:41;;;;;;;2.42;1.35;;;24.00;58.70;;;;;;10511823;28;20016;-51
2022/08/21 22:31:43;;;;;;;2.50;1.67;;;24.00;58.70;;;;;;10487210;28;20045;-49
2022/08/21 22:36:59;;;;;;;2.83;1.60;;;24.00;58.70;;;;;;10527079;28;20032;-51
2022/08/21 22:42:20;;;;;;;2.75;1.65;;;24.00;58.70;;;;;;10486082;28;20053;-50
2022/08/21 22:47:34;;;;;;;2.47;1.60;;;24.00;58.70;;;;;;10489810;28;20024;-51
2022/08/21 22:52:36;;;;;;;5.50;1.92;;;24.00;58.70;;;;;;10493229;28;20024;-51
2022/08/21 22:57:37;;;;;;;2.00;1.35;;;24.00;58.70;;;;;;10492876;28;20040;-49
2022/08/21 23:02:55;;;;;;;2.67;1.58;;;24.00;58.70;;;;;;10492420;28;20052;-51
2022/08/21 23:08:26;;;;;;;2.28;1.80;;;24.00;58.70;;;;;;10493857;28;20125;-50
2022/08/21 23:13:37;;;;;;;2.40;1.50;;;24.00;58.70;;;;;;10490377;28;20125;-53
2022/08/21 23:19:07;;;;;;;2.78;1.45;;;24.00;58.70;;;;;;10477260;28;20035;-51
2022/08/21 23:24:31;;;;;;;2.45;1.65;;;24.00;58.70;;;;;;10483363;28;20051;-49
2022/08/21 23:30:03;;;;;;;2.05;1.33;;;24.00;58.70;;;;;;10468419;28;20117;-51
2022/08/21 23:37:47;;;;;;;4.35;1.83;;;24.00;58.70;;;;;;10476898;28;20448;-52
2022/08/21 23:40:53;;;;;;;2.45;1.63;;;23.90;58.70;;;;;;10512592;28;20701;-51
2022/08/21 23:46:30;;;;;;;2.10;1.65;;;23.90;58.70;;;;;;10517010;28;20028;-50
2022/08/21 23:51:42;;;;;;;2.78;1.85;;;24.00;58.70;;;;;;10534171;28;20027;-49
2022/08/21 23:57:20;;;;;;;3.83;1.48;;;23.90;58.70;;;;;;10533579;28;20279;-52
